Time;durP1;ratioP1;P1;durP2;ratioP2;P2;SDS_P1;SDS_P2;PMS_P1;PMS_P2;Temp;Humidity;BMP_temperature;BMP_pressure;BME280_temperature;BME280_humidity;BME280_pressure;Samples;Min_cycle;Max_cycle;Signal;HPM_P1;HPM_P2
2024/03/23 00:02:22;;;;;;;33.80;21.50;;;;;;;;;;4338887;32;337238;-80
2024/03/23 00:04:50;;;;;;;29.17;19.27;;;;;;;;;;4337383;32;317864;-80
2024/03/23 00:07:19;;;;;;;27.63;18.13;;;;;;;;;;4318875;32;418613;-80
2024/03/23 00:09:48;;;;;;;34.37;18.07;;;;;;;;;;4344066;32;319151;-80
2024/03/23 00:12:15;;;;;;;37.57;18.97;;;;;;;;;;4331811;32;319057;-80
2024/03/23 00:14:43;;;;;;;30.67;17.63;;;;;;;;;;4352588;32;318475;-80
2024/03/23 00:17:12;;;;;;;33.83;18.07;;;;;;;;;;4330861;32;319182;-81
2024/03/23 00:19:39;;;;;;;43.00;23.73;;;;;;;;;;4337778;32;318024;-80
2024/03/23 00:22:06;;;;;;;54.00;25.33;;;;;;;;;;4321501;32;318510;-80
2024/03/23 00:24:34;;;;;;;41.47;24.00;;;;;;;;;;4348192;32;319045;-80
2024/03/23 00:27:02;;;;;;;44.47;24.13;;;;;;;;;;4327833;32;319437;-80
2024/03/23 00:29:32;;;;;;;34.93;22.30;;;;;;;;;;4350374;32;318709;-80
2024/03/23 00:31:59;;;;;;;40.70;22.13;;;;;;;;;;4336575;32;319433;-80
2024/03/23 00:34:29;;;;;;;32.50;21.70;;;;;;;;;;4350439;32;352240;-80
2024/03/23 00:36:56;;;;;;;42.13;20.33;;;;;;;;;;4341810;32;319426;-80
2024/03/23 00:39:26;;;;;;;35.70;19.17;;;;;;;;;;4329526;32;318634;-80
2024/03/23 00:41:54;;;;;;;38.17;17.63;;;;;;;;;;4327517;32;317748;-80
2024/03/23 00:44:23;;;;;;;30.87;16.73;;;;;;;;;;4334195;32;318631;-81
2024/03/23 00:46:52;;;;;;;30.50;15.93;;;;;;;;;;4340048;32;319325;-80
2024/03/23 00:49:20;;;;;;;24.67;15.07;;;;;;;;;;4320196;32;420370;-80
2024/03/23 00:51:49;;;;;;;25.77;14.80;;;;;;;;;;4340710;32;319052;-81
2024/03/23 00:54:15;;;;;;;39.60;19.80;;;;;;;;;;4339303;32;318388;-80
2024/03/23 00:56:41;;;;;;;46.23;24.03;;;;;;;;;;4360366;32;316477;-80
2024/03/23 00:59:09;;;;;;;69.27;34.13;;;;;;;;;;4334716;32;318621;-81
2024/03/23 01:01:36;;;;;;;48.67;25.83;;;;;;;;;;4364653;32;316402;-80
2024/03/23 01:04:05;;;;;;;43.77;23.93;;;;;;;;;;4346992;32;322333;-80
2024/03/23 01:06:31;;;;;;;44.00;22.20;;;;;;;;;;4374268;32;318468;-80
2024/03/23 01:08:59;;;;;;;27.00;17.40;;;;;;;;;;4342940;32;319495;-80
2024/03/23 01:11:27;;;;;;;32.73;16.40;;;;;;;;;;4346689;32;318618;-80
2024/03/23 01:13:55;;;;;;;30.30;15.40;;;;;;;;;;4339807;32;318955;-80
2024/03/23 01:16:21;;;;;;;26.63;15.63;;;;;;;;;;4342734;32;318709;-80
2024/03/23 01:18:48;;;;;;;22.60;14.97;;;;;;;;;;4335585;32;318827;-80
2024/03/23 01:21:15;;;;;;;24.83;14.83;;;;;;;;;;4319650;32;319720;-79
2024/03/23 01:23:43;;;;;;;20.23;13.57;;;;;;;;;;4335959;32;319397;-81
2024/03/23 01:26:10;;;;;;;25.47;14.50;;;;;;;;;;4326908;32;317658;-80
2024/03/23 01:28:39;;;;;;;18.60;13.10;;;;;;;;;;4336965;32;318289;-81
2024/03/23 01:31:08;;;;;;;22.23;14.57;;;;;;;;;;4334273;32;317873;-80
2024/03/23 01:33:36;;;;;;;22.77;12.80;;;;;;;;;;4333228;32;355750;-80
2024/03/23 01:36:03;;;;;;;22.60;13.43;;;;;;;;;;4323344;32;318111;-80
2024/03/23 01:38:31;;;;;;;26.47;15.90;;;;;;;;;;4336815;32;318312;-79
2024/03/23 01:40:58;;;;;;;32.33;16.50;;;;;;;;;;4326030;32;317672;-79
2024/03/23 01:43:29;;;;;;;28.13;15.77;;;;;;;;;;4330904;32;317474;-80
2024/03/23 01:45:54;;;;;;;28.53;17.83;;;;;;;;;;4327938;32;318303;-81
2024/03/23 01:48:25;;;;;;;29.83;17.20;;;;;;;;;;4331055;32;317904;-79
2024/03/23 01:50:51;;;;;;;33.30;16.77;;;;;;;;;;4342795;32;317380;-79
2024/03/23 01:53:21;;;;;;;26.67;16.63;;;;;;;;;;4327954;32;373461;-79
2024/03/23 01:55:47;;;;;;;29.23;17.40;;;;;;;;;;4348927;32;350589;-79
2024/03/23 01:58:14;;;;;;;49.63;23.67;;;;;;;;;;4339263;32;318525;-79
2024/03/23 02:00:41;;;;;;;40.37;22.07;;;;;;;;;;4352556;32;318462;-79
2024/03/23 02:03:24;;;;;;;41.50;21.43;;;;;;;;;;4334088;32;318056;-81
2024/03/23 02:05:49;;;;;;;29.50;17.93;;;;;;;;;;4352155;32;318067;-81
2024/03/23 02:08:19;;;;;;;26.43;15.57;;;;;;;;;;4325859;32;373281;-80
2024/03/23 02:10:46;;;;;;;22.33;14.60;;;;;;;;;;4336989;32;316730;-80
2024/03/23 02:13:13;;;;;;;23.90;13.33;;;;;;;;;;4319755;32;318302;-80
2024/03/23 02:15:41;;;;;;;20.93;13.83;;;;;;;;;;4335599;32;317574;-80
2024/03/23 02:18:09;;;;;;;34.73;17.17;;;;;;;;;;4327551;32;317723;-81
2024/03/23 02:20:36;;;;;;;25.70;15.07;;;;;;;;;;4335502;32;316841;-80
2024/03/23 02:23:06;;;;;;;30.57;16.13;;;;;;;;;;4322907;32;318688;-80
2024/03/23 02:25:33;;;;;;;32.03;17.23;;;;;;;;;;4343249;32;318284;-80
2024/03/23 02:28:01;;;;;;;34.87;20.07;;;;;;;;;;4341047;32;328786;-80
2024/03/23 02:30:28;;;;;;;39.90;18.67;;;;;;;;;;4351831;32;316857;-80
2024/03/23 02:32:55;;;;;;;31.33;16.97;;;;;;;;;;4339240;32;316417;-80
2024/03/23 02:35:22;;;;;;;25.47;15.87;;;;;;;;;;4344375;32;326335;-79
2024/03/23 02:37:49;;;;;;;22.63;14.43;;;;;;;;;;4342975;32;318317;-78
2024/03/23 02:40:29;;;;;;;23.27;15.37;;;;;;;;;;4327417;32;329802;-79
2024/03/23 02:42:56;;;;;;;21.77;14.63;;;;;;;;;;4335397;32;351286;-80
2024/03/23 02:45:23;;;;;;;26.63;15.10;;;;;;;;;;4330587;32;317616;-80
2024/03/23 02:47:52;;;;;;;30.10;14.70;;;;;;;;;;4338281;32;317863;-80
2024/03/23 02:50:18;;;;;;;25.37;14.97;;;;;;;;;;4339167;32;418730;-80
2024/03/23 02:52:45;;;;;;;21.43;13.77;;;;;;;;;;4352751;32;318423;-80
2024/03/23 02:55:11;;;;;;;25.73;13.47;;;;;;;;;;4335944;32;318664;-80
2024/03/23 02:57:41;;;;;;;29.27;14.23;;;;;;;;;;4351718;32;317988;-80
2024/03/23 03:00:07;;;;;;;31.40;14.83;;;;;;;;;;4342875;32;317489;-80
2024/03/23 03:02:34;;;;;;;23.20;13.93;;;;;;;;;;4352758;32;318316;-80
2024/03/23 03:05:02;;;;;;;22.87;14.63;;;;;;;;;;4346694;32;318612;-80
2024/03/23 03:07:30;;;;;;;27.90;15.50;;;;;;;;;;4362127;32;318696;-80
2024/03/23 03:09:56;;;;;;;19.20;11.27;;;;;;;;;;4352853;32;318047;-80
2024/03/23 03:12:24;;;;;;;16.37;10.23;;;;;;;;;;4363188;32;317716;-80
2024/03/23 03:14:52;;;;;;;21.97;11.17;;;;;;;;;;4364245;32;317374;-80
2024/03/23 03:17:20;;;;;;;21.57;10.87;;;;;;;;;;4346545;32;418750;-80
2024/03/23 03:19:47;;;;;;;17.30;11.67;;;;;;;;;;4362947;32;317779;-80
2024/03/23 03:22:14;;;;;;;37.57;22.90;;;;;;;;;;4356092;32;317334;-80
2024/03/23 03:24:40;;;;;;;21.40;15.67;;;;;;;;;;4355769;32;318406;-80
2024/03/23 03:27:08;;;;;;;18.97;11.87;;;;;;;;;;4336845;32;317860;-80
2024/03/23 03:29:35;;;;;;;35.00;18.43;;;;;;;;;;4351169;32;317777;-80
2024/03/23 03:32:03;;;;;;;27.97;16.30;;;;;;;;;;4341438;32;318119;-80
2024/03/23 03:34:30;;;;;;;30.70;16.77;;;;;;;;;;4350776;32;316620;-81
2024/03/23 03:36:57;;;;;;;38.03;17.33;;;;;;;;;;4341907;32;318435;-80
2024/03/23 03:39:25;;;;;;;41.27;16.57;;;;;;;;;;4344755;32;327861;-80
2024/03/23 03:41:51;;;;;;;26.10;15.87;;;;;;;;;;4342301;32;318559;-80
2024/03/23 03:44:18;;;;;;;32.10;16.97;;;;;;;;;;4350066;32;316421;-81
2024/03/23 03:46:47;;;;;;;38.50;22.80;;;;;;;;;;4348719;32;352644;-80
2024/03/23 03:49:19;;;;;;;37.30;23.53;;;;;;;;;;4333403;32;318816;-80
2024/03/23 03:51:45;;;;;;;42.87;24.70;;;;;;;;;;4349946;32;318421;-80
2024/03/23 03:54:11;;;;;;;43.57;22.47;;;;;;;;;;4339838;32;331486;-80
2024/03/23 03:56:39;;;;;;;35.33;22.03;;;;;;;;;;4349834;32;318214;-80
2024/03/23 03:59:05;;;;;;;31.00;19.73;;;;;;;;;;4335153;32;318058;-80
2024/03/23 04:01:32;;;;;;;32.87;22.03;;;;;;;;;;4348786;32;318342;-80
2024/03/23 04:03:57;;;;;;;32.93;18.50;;;;;;;;;;4338556;32;319122;-80
2024/03/23 04:06:28;;;;;;;31.07;18.10;;;;;;;;;;4347812;32;317673;-80
2024/03/23 04:08:54;;;;;;;28.97;17.27;;;;;;;;;;4341344;32;317635;-80
2024/03/23 04:11:20;;;;;;;25.30;17.43;;;;;;;;;;4345268;32;318105;-80
2024/03/23 04:13:47;;;;;;;25.73;17.93;;;;;;;;;;4348919;32;317548;-80
2024/03/23 04:16:25;;;;;;;32.50;17.23;;;;;;;;;;4339428;32;322329;-80
2024/03/23 04:18:51;;;;;;;28.93;19.03;;;;;;;;;;4338512;32;317708;-80
2024/03/23 04:21:18;;;;;;;25.93;17.47;;;;;;;;;;4342917;32;318181;-81
2024/03/23 04:23:45;;;;;;;30.20;17.13;;;;;;;;;;4350548;32;318054;-79
2024/03/23 04:26:12;;;;;;;27.43;18.27;;;;;;;;;;4340476;32;318384;-79
2024/03/23 04:28:38;;;;;;;26.30;17.43;;;;;;;;;;4350512;32;318082;-79
2024/03/23 04:31:08;;;;;;;27.50;16.67;;;;;;;;;;4334158;32;317589;-79
2024/03/23 04:33:34;;;;;;;29.90;15.50;;;;;;;;;;4349499;32;316411;-81
2024/03/23 04:36:01;;;;;;;31.37;15.83;;;;;;;;;;4340247;32;318005;-80
2024/03/23 04:38:28;;;;;;;22.50;14.20;;;;;;;;;;4349487;32;318238;-80
2024/03/23 04:41:02;;;;;;;23.83;15.27;;;;;;;;;;4340345;32;318557;-80
2024/03/23 04:43:30;;;;;;;23.17;15.47;;;;;;;;;;4350455;32;318514;-79
2024/03/23 04:45:57;;;;;;;20.93;13.43;;;;;;;;;;4336751;32;355031;-81
2024/03/23 04:48:23;;;;;;;26.30;15.10;;;;;;;;;;4350089;32;316377;-80
2024/03/23 04:50:50;;;;;;;28.97;16.57;;;;;;;;;;4349699;32;317412;-81
2024/03/23 04:53:18;;;;;;;31.63;16.13;;;;;;;;;;4334140;32;318334;-81
2024/03/23 04:55:46;;;;;;;37.70;22.03;;;;;;;;;;4352647;32;317343;-80
2024/03/23 04:58:13;;;;;;;36.10;21.33;;;;;;;;;;4341024;32;317576;-80
2024/03/23 05:00:40;;;;;;;27.43;17.87;;;;;;;;;;4349481;32;317457;-81
2024/03/23 05:03:07;;;;;;;33.93;20.60;;;;;;;;;;4332758;32;318283;-80
2024/03/23 05:05:33;;;;;;;37.07;23.23;;;;;;;;;;4349823;32;318219;-80
2024/03/23 05:08:00;;;;;;;43.63;23.83;;;;;;;;;;4327623;32;318228;-80
2024/03/23 05:10:26;;;;;;;36.57;23.17;;;;;;;;;;4334311;32;318034;-80
2024/03/23 05:12:53;;;;;;;29.63;20.53;;;;;;;;;;4325757;32;317910;-81
2024/03/23 05:15:20;;;;;;;30.97;21.03;;;;;;;;;;4331173;32;318022;-80
2024/03/23 05:17:46;;;;;;;33.60;20.60;;;;;;;;;;4336515;32;317524;-80
2024/03/23 05:20:12;;;;;;;36.67;22.00;;;;;;;;;;4325124;32;317946;-80
2024/03/23 05:22:43;;;;;;;38.90;21.53;;;;;;;;;;4334750;32;316433;-81
2024/03/23 05:25:09;;;;;;;34.17;20.30;;;;;;;;;;4313236;32;317692;-80
2024/03/23 05:27:36;;;;;;;47.47;22.57;;;;;;;;;;4344331;32;316748;-80
2024/03/23 05:30:03;;;;;;;36.27;20.63;;;;;;;;;;4325956;32;317657;-80
2024/03/23 05:32:31;;;;;;;31.47;20.10;;;;;;;;;;4335311;32;318559;-81
2024/03/23 05:34:57;;;;;;;34.60;22.73;;;;;;;;;;4325656;32;317480;-80
2024/03/23 05:37:24;;;;;;;37.30;21.47;;;;;;;;;;4334576;32;317434;-80
2024/03/23 05:39:50;;;;;;;38.20;21.90;;;;;;;;;;4351143;32;317764;-80
2024/03/23 05:42:18;;;;;;;42.00;24.20;;;;;;;;;;4335452;32;375599;-81
2024/03/23 05:44:45;;;;;;;63.13;29.33;;;;;;;;;;4348571;32;317730;-81
2024/03/23 05:47:14;;;;;;;50.43;28.20;;;;;;;;;;4333541;32;317480;-80
2024/03/23 05:49:46;;;;;;;51.77;28.53;;;;;;;;;;4346504;32;317441;-80
2024/03/23 05:52:14;;;;;;;53.53;28.63;;;;;;;;;;4340436;32;318506;-81
2024/03/23 05:54:40;;;;;;;55.83;29.23;;;;;;;;;;4350571;32;317531;-80
2024/03/23 05:57:08;;;;;;;43.03;25.77;;;;;;;;;;4334832;32;318680;-80
2024/03/23 05:59:34;;;;;;;43.23;24.63;;;;;;;;;;4350468;32;318719;-80
2024/03/23 06:02:00;;;;;;;40.80;25.60;;;;;;;;;;4339013;32;318354;-80
2024/03/23 06:04:26;;;;;;;39.00;21.97;;;;;;;;;;4349891;32;317527;-80
2024/03/23 06:06:54;;;;;;;36.97;21.87;;;;;;;;;;4339870;32;318321;-81
2024/03/23 06:09:22;;;;;;;40.03;20.43;;;;;;;;;;4345058;32;318210;-81
2024/03/23 06:11:49;;;;;;;33.23;19.67;;;;;;;;;;4350868;32;318115;-80
2024/03/23 06:14:16;;;;;;;25.20;16.77;;;;;;;;;;4338085;32;317648;-77
2024/03/23 06:16:43;;;;;;;25.33;16.53;;;;;;;;;;4345389;32;318614;-78
2024/03/23 06:19:09;;;;;;;25.77;17.73;;;;;;;;;;4331894;32;318061;-77
2024/03/23 06:21:36;;;;;;;32.30;17.53;;;;;;;;;;4348096;32;318089;-77
2024/03/23 06:24:06;;;;;;;33.70;19.53;;;;;;;;;;4338675;32;318280;-79
2024/03/23 06:26:32;;;;;;;36.23;18.53;;;;;;;;;;4344124;32;318120;-78
2024/03/23 06:28:58;;;;;;;35.43;19.17;;;;;;;;;;4341415;32;318186;-77
2024/03/23 06:31:24;;;;;;;35.27;19.43;;;;;;;;;;4340853;32;318378;-77
2024/03/23 06:33:51;;;;;;;31.63;19.93;;;;;;;;;;4347334;32;318223;-77
2024/03/23 06:36:16;;;;;;;31.90;19.93;;;;;;;;;;4334027;32;419015;-76
2024/03/23 06:38:43;;;;;;;32.27;19.97;;;;;;;;;;4347714;32;318226;-76
2024/03/23 06:41:11;;;;;;;30.30;17.17;;;;;;;;;;4332069;32;318157;-77
2024/03/23 06:43:38;;;;;;;29.17;18.03;;;;;;;;;;4347602;32;318272;-78
2024/03/23 06:46:04;;;;;;;31.13;20.03;;;;;;;;;;4336717;32;318150;-78
2024/03/23 06:48:30;;;;;;;28.43;18.53;;;;;;;;;;4346739;32;318270;-78
2024/03/23 06:50:56;;;;;;;24.83;16.50;;;;;;;;;;4336764;32;318198;-77
2024/03/23 06:53:23;;;;;;;29.57;14.97;;;;;;;;;;4338921;32;358355;-77
2024/03/23 06:55:51;;;;;;;25.80;14.73;;;;;;;;;;4347854;32;318095;-76
2024/03/23 06:58:20;;;;;;;21.77;12.87;;;;;;;;;;4335173;32;417072;-75
2024/03/23 07:00:47;;;;;;;28.97;15.00;;;;;;;;;;4347890;32;318181;-75
2024/03/23 07:03:14;;;;;;;20.17;13.27;;;;;;;;;;4330953;32;317967;-74
2024/03/23 07:05:39;;;;;;;18.10;13.97;;;;;;;;;;4345567;32;317464;-75
2024/03/23 07:08:07;;;;;;;20.00;12.60;;;;;;;;;;4335669;32;318294;-74
2024/03/23 07:10:33;;;;;;;18.20;11.77;;;;;;;;;;4345782;32;318155;-74
2024/03/23 07:12:59;;;;;;;20.57;10.50;;;;;;;;;;4335794;32;318375;-76
2024/03/23 07:15:26;;;;;;;19.13;10.63;;;;;;;;;;4341423;32;353718;-77
2024/03/23 07:17:53;;;;;;;20.97;13.67;;;;;;;;;;4333658;32;339152;-76
2024/03/23 07:20:19;;;;;;;23.80;13.60;;;;;;;;;;4346258;32;318225;-77
2024/03/23 07:22:47;;;;;;;23.97;13.40;;;;;;;;;;4345373;32;318153;-76
2024/03/23 07:25:13;;;;;;;26.43;14.83;;;;;;;;;;4331965;32;318700;-76
2024/03/23 07:27:40;;;;;;;19.93;13.07;;;;;;;;;;4349327;32;318232;-76
2024/03/23 07:30:07;;;;;;;20.97;13.47;;;;;;;;;;4336557;32;318374;-76
2024/03/23 07:32:35;;;;;;;15.93;11.30;;;;;;;;;;4349793;32;317879;-76
2024/03/23 07:35:01;;;;;;;23.13;13.30;;;;;;;;;;4334077;32;318029;-76
2024/03/23 07:37:28;;;;;;;20.07;12.70;;;;;;;;;;4350258;32;318234;-76
2024/03/23 07:39:53;;;;;;;22.07;12.43;;;;;;;;;;4337900;32;318425;-76
2024/03/23 07:42:20;;;;;;;16.63;11.07;;;;;;;;;;4349024;32;318522;-76
2024/03/23 07:44:46;;;;;;;20.77;11.90;;;;;;;;;;4350036;32;317488;-76
2024/03/23 07:47:13;;;;;;;20.23;11.87;;;;;;;;;;4332745;32;318050;-76
2024/03/23 07:49:40;;;;;;;21.07;11.77;;;;;;;;;;4349271;32;319317;-76
2024/03/23 07:52:08;;;;;;;14.23;10.40;;;;;;;;;;4339191;32;319294;-77
2024/03/23 07:54:33;;;;;;;19.17;10.03;;;;;;;;;;4348870;32;318334;-76
2024/03/23 07:57:00;;;;;;;16.67;9.40;;;;;;;;;;4342887;32;319242;-79
2024/03/23 07:59:26;;;;;;;18.00;10.77;;;;;;;;;;4350687;32;318092;-76
2024/03/23 08:01:52;;;;;;;27.57;10.43;;;;;;;;;;4339840;32;319546;-77
2024/03/23 08:04:20;;;;;;;20.57;11.17;;;;;;;;;;4349512;32;318521;-77
2024/03/23 08:06:47;;;;;;;14.43;9.47;;;;;;;;;;4343318;32;318587;-76
2024/03/23 08:09:13;;;;;;;16.63;10.00;;;;;;;;;;4317837;32;318243;-75
2024/03/23 08:11:39;;;;;;;12.47;8.77;;;;;;;;;;4335132;32;331974;-76
2024/03/23 08:14:06;;;;;;;19.03;10.07;;;;;;;;;;4324370;32;317817;-75
2024/03/23 08:16:34;;;;;;;16.43;9.20;;;;;;;;;;4334369;32;319192;-76
2024/03/23 08:18:59;;;;;;;13.23;8.40;;;;;;;;;;4322079;32;347809;-75
2024/03/23 08:21:26;;;;;;;13.20;8.87;;;;;;;;;;4330490;32;320450;-75
2024/03/23 08:23:53;;;;;;;12.17;8.93;;;;;;;;;;4325650;32;318254;-75
2024/03/23 08:26:20;;;;;;;14.93;9.37;;;;;;;;;;4342504;32;317938;-76
2024/03/23 08:28:46;;;;;;;18.63;10.30;;;;;;;;;;4349560;32;317475;-77
2024/03/23 08:31:14;;;;;;;13.53;8.63;;;;;;;;;;4333119;32;319644;-75
2024/03/23 08:33:42;;;;;;;20.27;10.83;;;;;;;;;;4349970;32;318357;-76
2024/03/23 08:36:12;;;;;;;22.97;13.93;;;;;;;;;;4340062;32;319023;-75
2024/03/23 08:38:37;;;;;;;18.80;9.83;;;;;;;;;;4349788;32;318496;-78
2024/03/23 08:41:07;;;;;;;22.10;9.83;;;;;;;;;;4334301;32;318310;-77
2024/03/23 08:43:35;;;;;;;16.10;8.37;;;;;;;;;;4350306;32;317920;-76
2024/03/23 08:46:05;;;;;;;18.77;9.73;;;;;;;;;;4340664;32;318170;-76
2024/03/23 08:48:31;;;;;;;18.30;9.93;;;;;;;;;;4349945;32;319363;-76
2024/03/23 08:51:02;;;;;;;13.70;9.40;;;;;;;;;;4339902;32;350606;-76
2024/03/23 08:53:28;;;;;;;17.30;9.40;;;;;;;;;;4349350;32;317550;-76
2024/03/23 08:55:55;;;;;;;17.40;9.53;;;;;;;;;;4339019;32;322641;-76
2024/03/23 08:58:24;;;;;;;13.10;8.57;;;;;;;;;;4349933;32;318049;-77
2024/03/23 09:00:51;;;;;;;16.03;9.23;;;;;;;;;;4337867;32;318196;-74
2024/03/23 09:03:16;;;;;;;17.30;9.60;;;;;;;;;;4314822;32;419188;-74
2024/03/23 09:05:43;;;;;;;14.47;9.07;;;;;;;;;;4346449;32;318013;-77
2024/03/23 09:08:09;;;;;;;15.40;9.67;;;;;;;;;;4333420;32;318374;-76
2024/03/23 09:10:39;;;;;;;15.40;9.60;;;;;;;;;;4348712;32;318084;-74
2024/03/23 09:13:05;;;;;;;15.00;10.90;;;;;;;;;;4331345;32;317359;-72
2024/03/23 09:15:33;;;;;;;12.80;8.53;;;;;;;;;;4347995;32;319198;-74
2024/03/23 09:17:59;;;;;;;17.53;8.90;;;;;;;;;;4337826;32;318172;-75
2024/03/23 09:20:26;;;;;;;15.67;9.00;;;;;;;;;;4348727;32;318498;-74
2024/03/23 09:22:51;;;;;;;17.43;9.10;;;;;;;;;;4337078;32;317948;-75
2024/03/23 09:25:18;;;;;;;14.23;9.60;;;;;;;;;;4340147;32;317909;-76
2024/03/23 09:27:45;;;;;;;15.27;10.23;;;;;;;;;;4348985;32;318226;-76
2024/03/23 09:30:13;;;;;;;25.30;11.83;;;;;;;;;;4337610;32;319410;-75
2024/03/23 09:32:42;;;;;;;34.37;18.17;;;;;;;;;;4348559;32;319113;-77
2024/03/23 09:35:24;;;;;;;22.63;12.77;;;;;;;;;;4330686;32;318968;-80
2024/03/23 09:37:50;;;;;;;13.27;8.87;;;;;;;;;;4347694;32;319422;-78
2024/03/23 09:40:16;;;;;;;13.75;9.10;;;;;;;;;;4338020;32;318217;-76
2024/03/23 09:42:46;;;;;;;19.10;11.47;;;;;;;;;;4348917;32;318112;-77
2024/03/23 09:45:18;;;;;;;13.90;8.60;;;;;;;;;;4330971;32;319211;-77
2024/03/23 09:47:46;;;;;;;17.13;8.13;;;;;;;;;;4347728;32;318376;-77
2024/03/23 09:50:14;;;;;;;14.27;8.37;;;;;;;;;;4336670;32;344334;-77
2024/03/23 09:52:40;;;;;;;11.87;7.80;;;;;;;;;;4348330;32;317659;-76
2024/03/23 09:55:07;;;;;;;11.27;8.30;;;;;;;;;;4330186;32;318038;-76
2024/03/23 09:57:33;;;;;;;15.20;9.57;;;;;;;;;;4348209;32;318124;-77
2024/03/23 09:59:59;;;;;;;20.40;7.70;;;;;;;;;;4337002;32;318125;-77
2024/03/23 10:02:26;;;;;;;14.10;8.23;;;;;;;;;;4348000;32;317637;-76
2024/03/23 10:04:54;;;;;;;15.75;8.45;;;;;;;;;;4336727;32;318122;-77
2024/03/23 10:07:21;;;;;;;11.27;7.70;;;;;;;;;;4340687;32;317977;-76
2024/03/23 10:09:50;;;;;;;17.57;7.67;;;;;;;;;;4347423;32;318281;-77
2024/03/23 10:12:17;;;;;;;14.63;8.37;;;;;;;;;;4323563;32;418604;-77
2024/03/23 10:14:44;;;;;;;15.50;8.30;;;;;;;;;;4332915;32;318034;-77
2024/03/23 10:17:14;;;;;;;11.15;7.45;;;;;;;;;;4317139;32;317976;-79
2024/03/23 10:19:42;;;;;;;13.57;7.53;;;;;;;;;;4346057;32;318296;-78
2024/03/23 10:22:09;;;;;;;10.38;6.93;;;;;;;;;;4337089;32;348458;-77
2024/03/23 10:24:36;;;;;;;10.73;6.82;;;;;;;;;;4348119;32;318136;-78
2024/03/23 10:27:02;;;;;;;11.60;6.70;;;;;;;;;;4331265;32;318056;-77
2024/03/23 10:29:29;;;;;;;10.82;6.78;;;;;;;;;;4346924;32;318304;-77
2024/03/23 10:32:07;;;;;;;9.97;6.40;;;;;;;;;;4338374;32;318171;-78
2024/03/23 10:34:33;;;;;;;16.70;6.13;;;;;;;;;;4348037;32;316481;-78
2024/03/23 10:37:01;;;;;;;13.03;7.60;;;;;;;;;;4337325;32;318371;-77
2024/03/23 10:39:31;;;;;;;12.83;6.63;;;;;;;;;;4345430;32;318258;-79
2024/03/23 10:41:57;;;;;;;14.27;7.97;;;;;;;;;;4339312;32;319314;-83
2024/03/23 10:44:28;;;;;;;11.15;6.68;;;;;;;;;;4349110;32;318160;-79
2024/03/23 10:46:58;;;;;;;10.05;5.50;;;;;;;;;;4338095;32;318218;-85
2024/03/23 10:49:27;;;;;;;10.23;5.82;;;;;;;;;;4343706;32;318148;-78
2024/03/23 10:51:53;;;;;;;9.82;6.03;;;;;;;;;;4338011;32;318207;-77
2024/03/23 10:54:20;;;;;;;8.68;5.62;;;;;;;;;;4345071;32;317007;-78
2024/03/23 10:56:52;;;;;;;8.27;5.87;;;;;;;;;;4348543;32;317050;-75
2024/03/23 10:59:19;;;;;;;12.05;6.45;;;;;;;;;;4326781;32;417792;-75
2024/03/23 11:01:55;;;;;;;8.05;5.53;;;;;;;;;;4350756;32;318237;-75
2024/03/23 11:04:31;;;;;;;8.68;6.43;;;;;;;;;;4335835;32;417783;-74
2024/03/23 11:06:57;;;;;;;6.87;5.10;;;;;;;;;;4339992;32;317144;-74
2024/03/23 11:09:39;;;;;;;6.80;5.68;;;;;;;;;;4343338;32;317260;-74
2024/03/23 11:12:24;;;;;;;14.57;6.30;;;;;;;;;;4340868;32;317345;-75
2024/03/23 11:14:52;;;;;;;9.65;5.60;;;;;;;;;;4347823;32;318258;-75
2024/03/23 11:17:19;;;;;;;8.07;5.07;;;;;;;;;;4332441;32;416790;-75
2024/03/23 11:19:54;;;;;;;5.87;4.47;;;;;;;;;;4351058;32;317154;-75
2024/03/23 11:22:38;;;;;;;14.27;5.70;;;;;;;;;;4337811;32;418079;-76
2024/03/23 11:25:13;;;;;;;7.87;4.55;;;;;;;;;;4332915;32;317928;-76
2024/03/23 11:27:40;;;;;;;6.93;4.37;;;;;;;;;;4350898;32;319705;-76
2024/03/23 11:30:14;;;;;;;9.60;4.43;;;;;;;;;;4340023;32;317093;-77
2024/03/23 11:32:39;;;;;;;7.18;4.70;;;;;;;;;;4350783;32;317276;-76
2024/03/23 11:35:09;;;;;;;6.72;5.18;;;;;;;;;;4334821;32;317060;-77
2024/03/23 11:37:36;;;;;;;6.07;3.67;;;;;;;;;;4348817;32;317309;-75
2024/03/23 11:40:18;;;;;;;6.50;4.00;;;;;;;;;;4339370;32;336138;-76
2024/03/23 11:42:46;;;;;;;7.22;4.93;;;;;;;;;;4350757;32;317515;-75
2024/03/23 11:45:14;;;;;;;10.02;4.43;;;;;;;;;;4327683;32;317172;-74
2024/03/23 11:47:39;;;;;;;6.55;4.35;;;;;;;;;;4359121;32;359284;-74
2024/03/23 11:50:08;;;;;;;9.17;4.77;;;;;;;;;;4337413;32;330038;-74
2024/03/23 11:52:33;;;;;;;12.05;6.03;;;;;;;;;;4350089;32;317168;-74
2024/03/23 11:55:09;;;;;;;8.38;4.47;;;;;;;;;;4339462;32;334195;-75
2024/03/23 11:57:35;;;;;;;6.93;4.32;;;;;;;;;;4350593;32;317129;-76
2024/03/23 12:00:21;;;;;;;5.68;4.07;;;;;;;;;;4344042;32;317155;-75
2024/03/23 12:02:47;;;;;;;8.57;4.95;;;;;;;;;;4350630;32;317171;-76
2024/03/23 12:05:18;;;;;;;8.27;4.07;;;;;;;;;;4333867;32;317228;-78
2024/03/23 12:07:44;;;;;;;6.30;4.45;;;;;;;;;;4350197;32;317163;-76
2024/03/23 12:10:12;;;;;;;6.72;3.60;;;;;;;;;;4337478;32;317042;-76
2024/03/23 12:12:39;;;;;;;7.40;4.05;;;;;;;;;;4346714;32;317109;-74
2024/03/23 12:15:08;;;;;;;5.37;3.92;;;;;;;;;;4332429;32;334824;-77
2024/03/23 12:17:34;;;;;;;6.28;3.33;;;;;;;;;;4350795;32;317362;-77
2024/03/23 12:20:02;;;;;;;10.90;4.28;;;;;;;;;;4340639;32;317199;-76
2024/03/23 12:22:29;;;;;;;8.18;4.70;;;;;;;;;;4348934;32;318184;-76
2024/03/23 12:24:56;;;;;;;5.70;4.35;;;;;;;;;;4339082;32;317161;-75
2024/03/23 12:27:22;;;;;;;6.75;4.15;;;;;;;;;;4342501;32;345039;-75
2024/03/23 12:29:50;;;;;;;9.48;4.20;;;;;;;;;;4348171;32;317075;-75
2024/03/23 12:32:18;;;;;;;8.40;3.97;;;;;;;;;;4336921;32;418100;-75
2024/03/23 12:34:45;;;;;;;7.87;4.20;;;;;;;;;;4348827;32;316706;-74
2024/03/23 12:37:12;;;;;;;3.30;2.87;;;;;;;;;;4332125;32;336874;-75
2024/03/23 12:39:40;;;;;;;5.62;3.80;;;;;;;;;;4348974;32;317037;-74
2024/03/23 12:42:06;;;;;;;6.60;4.07;;;;;;;;;;4337615;32;317149;-75
2024/03/23 12:44:34;;;;;;;4.20;3.33;;;;;;;;;;4349332;32;317103;-74
2024/03/23 12:47:01;;;;;;;5.60;3.12;;;;;;;;;;4336880;32;317417;-78
2024/03/23 12:49:29;;;;;;;5.47;3.42;;;;;;;;;;4350159;32;317201;-82
2024/03/23 12:51:56;;;;;;;7.60;3.22;;;;;;;;;;4341337;32;317977;-79
2024/03/23 12:54:25;;;;;;;6.87;3.83;;;;;;;;;;4350461;32;334200;-78
2024/03/23 12:56:50;;;;;;;6.40;4.05;;;;;;;;;;4349316;32;317014;-75
2024/03/23 12:59:18;;;;;;;7.20;3.83;;;;;;;;;;4331126;32;373664;-75
2024/03/23 13:01:44;;;;;;;7.25;3.15;;;;;;;;;;4346714;32;356258;-74
2024/03/23 13:04:10;;;;;;;14.23;5.03;;;;;;;;;;4337561;32;327818;-75
2024/03/23 13:06:39;;;;;;;14.73;4.12;;;;;;;;;;4348213;32;316714;-75
2024/03/23 13:09:08;;;;;;;5.75;3.75;;;;;;;;;;4332332;32;318116;-76
2024/03/23 13:11:34;;;;;;;7.15;3.75;;;;;;;;;;4348017;32;317271;-74
2024/03/23 13:14:01;;;;;;;5.80;3.45;;;;;;;;;;4338348;32;317217;-74
2024/03/23 13:16:28;;;;;;;10.30;5.22;;;;;;;;;;4347949;32;316806;-74
2024/03/23 13:18:56;;;;;;;5.65;4.37;;;;;;;;;;4337919;32;318050;-74
2024/03/23 13:21:23;;;;;;;9.57;4.47;;;;;;;;;;4342666;32;316904;-79
2024/03/23 13:23:51;;;;;;;7.95;4.95;;;;;;;;;;4349891;32;317227;-75
2024/03/23 13:26:16;;;;;;;6.45;4.10;;;;;;;;;;4344826;32;416893;-78
2024/03/23 13:28:44;;;;;;;8.13;4.47;;;;;;;;;;4365195;32;315700;-76
2024/03/23 13:31:10;;;;;;;7.00;4.32;;;;;;;;;;4347279;32;315968;-76
2024/03/23 13:33:37;;;;;;;6.72;4.25;;;;;;;;;;4363515;32;317017;-74
2024/03/23 13:36:03;;;;;;;10.32;4.30;;;;;;;;;;4353853;32;316157;-75
2024/03/23 13:38:30;;;;;;;6.18;4.43;;;;;;;;;;4363057;32;318817;-75
2024/03/23 13:40:58;;;;;;;9.18;4.85;;;;;;;;;;4349446;32;315728;-75
2024/03/23 13:43:26;;;;;;;8.23;5.70;;;;;;;;;;4341690;32;317293;-75
2024/03/23 13:45:53;;;;;;;10.80;4.30;;;;;;;;;;4337613;32;317171;-76
2024/03/23 13:48:20;;;;;;;6.05;4.30;;;;;;;;;;4351583;32;318309;-75
2024/03/23 13:50:48;;;;;;;7.05;4.12;;;;;;;;;;4355207;32;316962;-75
2024/03/23 13:53:14;;;;;;;10.35;4.78;;;;;;;;;;4336220;32;317418;-76
2024/03/23 13:55:46;;;;;;;6.28;3.83;;;;;;;;;;4350549;32;318124;-76
2024/03/23 13:58:14;;;;;;;8.68;4.05;;;;;;;;;;4338931;32;317741;-75
2024/03/23 14:00:41;;;;;;;3.40;2.60;;;;;;;;;;4349314;32;317187;-75
2024/03/23 14:03:08;;;;;;;5.40;3.50;;;;;;;;;;4331110;32;317344;-76
2024/03/23 14:05:34;;;;;;;5.90;3.67;;;;;;;;;;4348296;32;356651;-75
2024/03/23 14:08:00;;;;;;;5.37;3.87;;;;;;;;;;4337616;32;331326;-76
2024/03/23 14:10:27;;;;;;;7.40;4.32;;;;;;;;;;4349036;32;317465;-75
2024/03/23 14:12:54;;;;;;;8.82;4.45;;;;;;;;;;4337103;32;317384;-76
2024/03/23 14:15:21;;;;;;;5.65;3.75;;;;;;;;;;4341404;32;317207;-76